Time;durP1;ratioP1;P1;durP2;ratioP2;P2;SDS_P1;SDS_P2;PMS_P1;PMS_P2;Temp;Humidity;BMP_temperature;BMP_pressure;BME280_temperature;BME280_humidity;BME280_pressure;Samples;Min_cycle;Max_cycle;Signal;HPM_P1;HPM_P2
2021/06/10 00:01:03;;;;;;;12.23;6.97;;;23.10;1.00;;;;;;4997655;28;20181;-88
2021/06/10 00:03:30;;;;;;;8.03;5.97;;;23.10;1.00;;;;;;4995923;28;20168;-84
2021/06/10 00:05:56;;;;;;;10.27;5.30;;;23.00;1.00;;;;;;4996268;28;20171;-85
2021/06/10 00:08:22;;;;;;;8.97;4.97;;;22.90;99.90;;;;;;5013234;28;20172;-87
2021/06/10 00:10:48;;;;;;;7.97;4.20;;;22.80;1.00;;;;;;4998164;28;20175;-84
2021/06/10 00:13:16;;;;;;;7.33;4.23;;;22.90;99.90;;;;;;4997821;28;20151;-85
2021/06/10 00:15:43;;;;;;;6.50;4.30;;;23.00;1.00;;;;;;4997005;28;20721;-85
2021/06/10 00:18:09;;;;;;;7.10;4.53;;;23.00;1.00;;;;;;4997459;28;20193;-85
2021/06/10 00:20:37;;;;;;;8.40;4.37;;;22.80;1.00;;;;;;4996802;28;20171;-84
2021/06/10 00:23:04;;;;;;;6.37;4.47;;;22.70;1.00;;;;;;4995996;28;20277;-87
2021/06/10 00:25:32;;;;;;;8.27;4.00;;;22.70;88.40;;;;;;4996535;28;20172;-84
2021/06/10 00:27:59;;;;;;;5.43;3.67;;;22.60;99.90;;;;;;4998144;28;20642;-84
2021/06/10 00:30:25;;;;;;;6.70;3.93;;;22.70;99.90;;;;;;4997573;28;20167;-84
2021/06/10 00:32:51;;;;;;;7.33;4.27;;;22.60;99.90;;;;;;4998005;28;20504;-83
2021/06/10 00:35:19;;;;;;;6.37;4.00;;;22.60;99.90;;;;;;4999519;28;20211;-84
2021/06/10 00:37:45;;;;;;;5.87;3.97;;;22.60;99.90;;;;;;4996017;28;20175;-85
2021/06/10 00:40:12;;;;;;;8.13;4.37;;;22.50;99.90;;;;;;4997162;28;20178;-87
2021/06/10 00:42:38;;;;;;;6.03;4.27;;;22.50;99.90;;;;;;4995745;28;20270;-86
2021/06/10 00:45:09;;;;;;;6.30;4.17;;;22.60;99.90;;;;;;5011333;28;20225;-85
2021/06/10 00:47:35;;;;;;;6.47;4.37;;;22.50;99.90;;;;;;4995269;28;20265;-84
2021/06/10 00:50:01;;;;;;;7.80;4.37;;;22.40;99.90;;;;;;4996814;28;20217;-85
2021/06/10 00:52:27;;;;;;;5.47;3.80;;;22.40;99.90;;;;;;4995158;28;20182;-84
2021/06/10 00:54:52;;;;;;;8.03;4.40;;;22.30;99.90;;;;;;4996551;28;20694;-86
2021/06/10 00:57:18;;;;;;;6.40;4.40;;;22.30;99.90;;;;;;4996325;28;20205;-85
2021/06/10 00:59:44;;;;;;;8.17;4.90;;;22.30;99.90;;;;;;4997219;28;20666;-86
2021/06/10 01:02:09;;;;;;;5.53;3.73;;;22.30;99.90;;;;;;4997406;28;20178;-85
2021/06/10 01:04:36;;;;;;;6.57;4.27;;;22.20;99.90;;;;;;4997344;28;20189;-84
2021/06/10 01:07:16;;;;;;;7.53;4.80;;;22.20;99.90;;;;;;4996832;28;20185;-84
2021/06/10 01:10:32;;;;;;;7.83;4.30;;;22.10;1.00;;;;;;5011683;28;20548;-83
2021/06/10 01:13:18;;;;;;;6.87;4.43;;;21.90;1.00;;;;;;4994142;28;20353;-86
2021/06/10 01:15:48;;;;;;;6.67;4.77;;;21.90;1.00;;;;;;4996269;28;20217;-84
2021/06/10 01:18:16;;;;;;;7.67;4.80;;;21.80;1.00;;;;;;4996342;28;20181;-85
2021/06/10 01:20:43;;;;;;;7.23;5.00;;;21.80;1.00;;;;;;4996468;28;20176;-85
2021/06/10 01:23:21;;;;;;;7.47;4.70;;;21.50;1.00;;;;;;5011955;28;20160;-85
2021/06/10 01:26:09;;;;;;;9.57;4.83;;;21.30;1.00;;;;;;4995462;28;20178;-84
2021/06/10 01:28:37;;;;;;;5.33;4.33;;;20.90;1.00;;;;;;4996863;28;20202;-83
2021/06/10 01:31:08;;;;;;;5.60;4.33;;;20.50;1.00;;;;;;4996190;28;20167;-82
2021/06/10 01:33:51;;;;;;;6.30;4.13;;;20.40;1.00;;;;;;5001248;28;20233;-83
2021/06/10 01:36:24;;;;;;;5.93;4.30;;;20.30;1.00;;;;;;5001452;28;20214;-84
2021/06/10 01:38:53;;;;;;;7.60;4.43;;;20.30;1.00;;;;;;4994733;28;20170;-84
2021/06/10 01:41:21;;;;;;;9.47;4.63;;;20.40;1.00;;;;;;4995691;28;20218;-85
2021/06/10 01:43:57;;;;;;;5.13;4.40;;;20.40;1.00;;;;;;4995486;28;20167;-85
2021/06/10 01:46:31;;;;;;;6.43;4.50;;;20.40;1.00;;;;;;4995513;28;20203;-84
2021/06/10 01:48:58;;;;;;;5.47;4.10;;;20.50;1.00;;;;;;4994158;28;20179;-85
2021/06/10 01:51:26;;;;;;;5.87;4.57;;;20.50;1.00;;;;;;4996688;28;20167;-84
2021/06/10 01:53:53;;;;;;;7.77;4.90;;;20.50;1.00;;;;;;5012993;28;20569;-81
2021/06/10 01:56:22;;;;;;;7.23;4.43;;;20.50;1.00;;;;;;5002938;28;20675;-83
2021/06/10 01:58:50;;;;;;;7.73;4.63;;;20.50;1.00;;;;;;4996183;28;20225;-83
2021/06/10 02:01:17;;;;;;;5.80;4.37;;;20.60;1.00;;;;;;4996473;28;20243;-83
2021/06/10 02:03:48;;;;;;;6.33;4.03;;;20.40;1.00;;;;;;4995319;28;20168;-83
2021/06/10 02:06:18;;;;;;;5.50;4.20;;;20.40;1.00;;;;;;4995095;28;20172;-84
2021/06/10 02:08:47;;;;;;;6.83;5.07;;;20.50;1.00;;;;;;4995518;28;20160;-85
2021/06/10 02:11:14;;;;;;;6.57;4.80;;;20.60;1.00;;;;;;4995705;28;20161;-85
2021/06/10 02:13:40;;;;;;;6.63;4.13;;;20.70;1.00;;;;;;4995511;28;20171;-86
2021/06/10 02:16:07;;;;;;;6.17;4.83;;;20.60;1.00;;;;;;4995988;28;20175;-86
2021/06/10 02:18:34;;;;;;;5.90;5.00;;;20.70;1.00;;;;;;4995607;28;20234;-84
2021/06/10 02:21:03;;;;;;;6.43;4.87;;;20.70;1.00;;;;;;4994699;28;20222;-88
2021/06/10 02:23:30;;;;;;;7.13;4.73;;;20.80;1.00;;;;;;4994976;28;20173;-85
2021/06/10 02:25:56;;;;;;;5.13;4.63;;;20.90;1.00;;;;;;4996469;28;20282;-83
2021/06/10 02:28:22;;;;;;;7.67;5.00;;;20.80;1.00;;;;;;5011844;28;20648;-84
2021/06/10 02:30:47;;;;;;;7.13;4.73;;;20.70;1.00;;;;;;5000766;28;20176;-87
2021/06/10 02:33:16;;;;;;;6.97;4.80;;;20.70;1.00;;;;;;5000021;28;20204;-87
2021/06/10 02:35:42;;;;;;;5.70;5.10;;;20.70;1.00;;;;;;4998539;28;20572;-83
2021/06/10 02:38:09;;;;;;;6.93;4.80;;;20.50;1.00;;;;;;5000765;28;20172;-83
2021/06/10 02:40:42;;;;;;;5.03;4.50;;;20.40;1.00;;;;;;4999802;28;20175;-83
2021/06/10 02:43:09;;;;;;;6.47;4.77;;;20.40;1.00;;;;;;4999105;28;20717;-88
2021/06/10 02:45:37;;;;;;;8.60;5.47;;;20.40;1.00;;;;;;4998575;28;20175;-86
2021/06/10 02:48:04;;;;;;;5.57;5.03;;;20.50;1.00;;;;;;4999208;28;20255;-83
2021/06/10 02:50:31;;;;;;;5.97;5.43;;;20.30;1.00;;;;;;4999717;28;20208;-84
2021/06/10 02:52:58;;;;;;;7.10;5.40;;;20.30;1.00;;;;;;4999711;28;20224;-84
2021/06/10 02:55:24;;;;;;;8.40;7.00;;;20.40;1.00;;;;;;4999034;28;20261;-84
2021/06/10 02:57:53;;;;;;;13.67;11.83;;;20.40;1.00;;;;;;4998568;28;20582;-83
2021/06/10 03:00:20;;;;;;;13.37;12.07;;;20.50;1.00;;;;;;4998513;28;20195;-85
2021/06/10 03:02:49;;;;;;;12.13;10.83;;;20.20;1.00;;;;;;4999043;28;20163;-86
2021/06/10 03:05:16;;;;;;;11.23;10.13;;;20.20;1.00;;;;;;4997573;28;20172;-83
2021/06/10 03:07:44;;;;;;;12.73;11.43;;;20.20;1.00;;;;;;4998856;28;20222;-84
2021/06/10 03:10:12;;;;;;;13.17;11.77;;;20.10;1.00;;;;;;4998604;28;20168;-84
2021/06/10 03:12:40;;;;;;;9.73;8.73;;;20.10;1.00;;;;;;4998760;28;20215;-84
2021/06/10 03:15:08;;;;;;;8.90;8.00;;;20.00;1.00;;;;;;4998299;28;20207;-86
2021/06/10 03:17:35;;;;;;;10.10;7.40;;;19.90;1.00;;;;;;4997513;28;20184;-85
2021/06/10 03:20:03;;;;;;;8.93;5.97;;;19.90;1.00;;;;;;4998199;28;20628;-86
2021/06/10 03:22:29;;;;;;;10.47;6.17;;;19.90;1.00;;;;;;4998100;28;20192;-83
2021/06/10 03:24:55;;;;;;;8.27;6.20;;;19.90;1.00;;;;;;4998559;28;20176;-85
2021/06/10 03:27:23;;;;;;;8.93;5.87;;;20.10;1.00;;;;;;5013842;28;20637;-82
2021/06/10 03:29:48;;;;;;;9.70;5.70;;;20.20;1.00;;;;;;4998703;28;20546;-84
2021/06/10 03:32:15;;;;;;;9.73;6.03;;;20.10;1.00;;;;;;4998312;28;20171;-84
2021/06/10 03:34:44;;;;;;;7.63;5.83;;;20.10;1.00;;;;;;4997538;28;20214;-83
2021/06/10 03:37:10;;;;;;;9.43;5.67;;;19.90;1.00;;;;;;4998104;28;20165;-85
2021/06/10 03:39:39;;;;;;;9.70;6.10;;;19.70;1.00;;;;;;4997825;28;20191;-85
2021/06/10 03:42:07;;;;;;;9.20;6.73;;;19.90;1.00;;;;;;4998869;28;20219;-84
2021/06/10 03:44:33;;;;;;;12.73;6.80;;;19.90;1.00;;;;;;4999046;28;20173;-82
2021/06/10 03:47:00;;;;;;;11.57;6.77;;;19.80;1.00;;;;;;4998199;28;20178;-83
2021/06/10 03:49:27;;;;;;;12.67;7.17;;;19.90;1.00;;;;;;4998980;28;20171;-84
2021/06/10 03:51:55;;;;;;;15.17;6.77;;;19.80;1.00;;;;;;5005673;28;20174;-83
2021/06/10 03:54:23;;;;;;;13.23;6.93;;;19.70;1.00;;;;;;5012300;28;20251;-83
2021/06/10 03:56:49;;;;;;;13.00;6.90;;;19.70;1.00;;;;;;5017767;28;20197;-82
2021/06/10 03:59:15;;;;;;;10.63;6.63;;;19.60;1.00;;;;;;5012434;28;20171;-85
2021/06/10 04:01:53;;;;;;;10.87;6.53;;;19.70;1.00;;;;;;4999102;28;20202;-85
2021/06/10 04:04:19;;;;;;;9.43;7.07;;;19.60;1.00;;;;;;4998262;28;20171;-84
2021/06/10 04:06:57;;;;;;;9.93;6.40;;;19.60;1.00;;;;;;4998240;28;20310;-87
2021/06/10 04:09:49;;;;;;;9.83;6.53;;;19.50;1.00;;;;;;4998477;28;20246;-84
2021/06/10 04:12:15;;;;;;;13.00;7.07;;;19.50;1.00;;;;;;5000405;28;20177;-85
2021/06/10 04:14:41;;;;;;;16.97;7.37;;;19.40;1.00;;;;;;4999542;28;20207;-83
2021/06/10 04:17:06;;;;;;;10.57;7.17;;;19.50;1.00;;;;;;4998440;28;20167;-85
2021/06/10 04:19:35;;;;;;;10.77;7.53;;;19.50;1.00;;;;;;4996252;28;20241;-84
2021/06/10 04:22:04;;;;;;;13.30;8.20;;;19.40;1.00;;;;;;4998252;28;20170;-86
2021/06/10 04:24:30;;;;;;;11.93;8.40;;;19.40;1.00;;;;;;4999115;28;20191;-85
2021/06/10 04:26:56;;;;;;;12.20;8.80;;;19.70;1.00;;;;;;5001189;28;20207;-83
2021/06/10 04:29:22;;;;;;;11.03;8.43;;;19.40;1.00;;;;;;5002281;28;20230;-82
2021/06/10 04:31:49;;;;;;;11.87;8.13;;;19.40;1.00;;;;;;5000595;28;20589;-86
2021/06/10 04:34:19;;;;;;;11.33;8.50;;;19.70;1.00;;;;;;4997108;28;20211;-84
2021/06/10 04:36:45;;;;;;;11.70;9.10;;;19.70;1.00;;;;;;5000788;28;20199;-85
2021/06/10 04:39:11;;;;;;;12.07;9.47;;;19.70;1.00;;;;;;5004481;28;20179;-84
2021/06/10 04:41:37;;;;;;;11.67;8.53;;;19.70;1.00;;;;;;4999191;28;20171;-85
2021/06/10 04:44:03;;;;;;;15.60;9.47;;;19.60;1.00;;;;;;5010092;28;20160;-84
2021/06/10 04:46:29;;;;;;;12.17;9.27;;;19.60;1.00;;;;;;5018368;28;20166;-86
2021/06/10 04:48:56;;;;;;;13.00;9.37;;;19.80;1.00;;;;;;5017193;28;20616;-84
2021/06/10 04:51:25;;;;;;;10.70;8.80;;;19.90;1.00;;;;;;5015079;28;20188;-85
2021/06/10 04:53:54;;;;;;;10.77;8.97;;;19.90;1.00;;;;;;5015180;28;20240;-85
2021/06/10 04:56:23;;;;;;;11.03;9.10;;;19.90;1.00;;;;;;5018115;28;20210;-84
2021/06/10 04:58:51;;;;;;;13.63;9.73;;;19.90;1.00;;;;;;5004514;28;20174;-85
2021/06/10 05:01:20;;;;;;;13.27;9.03;;;19.90;1.00;;;;;;5004238;28;20159;-84
2021/06/10 05:03:59;;;;;;;12.33;9.43;;;20.10;1.00;;;;;;5004259;28;20191;-85
2021/06/10 05:06:26;;;;;;;11.67;8.60;;;20.20;1.00;;;;;;4997852;28;20222;-85
2021/06/10 05:09:13;;;;;;;15.47;9.27;;;20.20;1.00;;;;;;4997075;28;20163;-85
2021/06/10 05:11:49;;;;;;;16.20;8.90;;;20.30;1.00;;;;;;5012724;28;20211;-85
2021/06/10 05:14:22;;;;;;;11.30;9.67;;;20.50;1.00;;;;;;4996248;28;20222;-85
2021/06/10 05:16:49;;;;;;;14.77;9.60;;;20.40;1.00;;;;;;4996965;28;20653;-85
2021/06/10 05:19:15;;;;;;;12.33;8.77;;;20.30;1.00;;;;;;4995820;28;20227;-85
2021/06/10 05:21:41;;;;;;;13.80;9.87;;;20.30;1.00;;;;;;4995917;28;20172;-85
2021/06/10 05:24:09;;;;;;;12.33;9.53;;;20.30;1.00;;;;;;4996293;28;20175;-88
2021/06/10 05:26:35;;;;;;;14.07;9.13;;;20.20;1.00;;;;;;4996775;28;20176;-85
2021/06/10 05:29:03;;;;;;;17.37;9.73;;;20.20;1.00;;;;;;4996206;28;20172;-84
2021/06/10 05:31:29;;;;;;;13.97;8.73;;;20.20;1.00;;;;;;4997103;28;20640;-85
2021/06/10 05:33:55;;;;;;;11.80;9.77;;;20.20;1.00;;;;;;4996024;28;20191;-85
2021/06/10 05:36:23;;;;;;;14.33;8.60;;;20.30;1.00;;;;;;4996336;28;20258;-84
2021/06/10 05:38:51;;;;;;;12.70;9.83;;;20.20;1.00;;;;;;4996198;28;20180;-84
2021/06/10 05:41:16;;;;;;;13.37;10.87;;;20.10;1.00;;;;;;4998349;28;20181;-88
2021/06/10 05:43:42;;;;;;;17.20;11.37;;;20.10;1.00;;;;;;4996979;28;20230;-89
2021/06/10 05:46:08;;;;;;;15.60;10.87;;;20.10;1.00;;;;;;4997843;28;20591;-90
2021/06/10 05:48:38;;;;;;;16.43;11.63;;;20.20;1.00;;;;;;4997269;28;20210;-90
2021/06/10 05:51:04;;;;;;;13.23;11.80;;;20.30;1.00;;;;;;4999790;28;20689;-86
2021/06/10 05:53:31;;;;;;;15.20;11.40;;;20.50;1.00;;;;;;5000647;28;20231;-85
2021/06/10 05:55:57;;;;;;;12.43;10.43;;;20.40;1.00;;;;;;5011751;28;20637;-88
2021/06/10 05:58:23;;;;;;;13.33;10.80;;;20.40;1.00;;;;;;4996412;28;20259;-90
2021/06/10 06:00:50;;;;;;;11.77;10.50;;;20.40;1.00;;;;;;4999551;28;20254;-88
2021/06/10 06:03:16;;;;;;;13.73;9.57;;;20.20;1.00;;;;;;5000279;28;20167;-87
2021/06/10 06:05:41;;;;;;;12.80;8.30;;;20.20;1.00;;;;;;5014648;28;20235;-87
2021/06/10 06:08:07;;;;;;;7.27;6.27;;;20.30;1.00;;;;;;4998058;28;20195;-83
2021/06/10 06:10:33;;;;;;;9.07;6.90;;;20.20;1.00;;;;;;4995760;28;20194;-86
2021/06/10 06:13:02;;;;;;;7.50;6.27;;;20.40;99.90;;;;;;5002765;28;20240;-85
2021/06/10 06:15:30;;;;;;;10.30;6.30;;;20.30;1.00;;;;;;5017283;28;20673;-87
2021/06/10 06:17:57;;;;;;;6.60;5.20;;;20.40;1.00;;;;;;5014370;28;20635;-83
2021/06/10 06:20:23;;;;;;;8.10;4.43;;;20.50;1.00;;;;;;5015527;28;20174;-87
2021/06/10 06:22:49;;;;;;;6.93;4.63;;;20.40;1.00;;;;;;5015402;28;20162;-86
2021/06/10 06:25:17;;;;;;;5.90;3.57;;;20.30;99.90;;;;;;5014809;28;20549;-85
2021/06/10 06:27:43;;;;;;;6.93;3.30;;;20.30;1.00;;;;;;5006797;28;20229;-83
2021/06/10 06:30:11;;;;;;;4.87;3.73;;;20.10;1.00;;;;;;5001802;28;20229;-83
2021/06/10 06:32:37;;;;;;;7.33;3.63;;;20.00;99.90;;;;;;4993084;28;20189;-82
2021/06/10 06:35:04;;;;;;;5.43;3.90;;;20.00;1.00;;;;;;4990490;28;20199;-87
2021/06/10 06:37:31;;;;;;;6.57;3.73;;;20.00;99.90;;;;;;4989827;28;20177;-85
2021/06/10 06:39:56;;;;;;;7.17;3.73;;;20.10;99.90;;;;;;4984796;28;20203;-84
2021/06/10 06:42:22;;;;;;;6.53;3.60;;;20.20;1.00;;;;;;4973488;28;20172;-83
2021/06/10 06:44:48;;;;;;;8.13;3.53;;;20.40;1.00;;;;;;4972684;28;20184;-83
2021/06/10 06:47:13;;;;;;;7.47;3.87;;;20.50;1.00;;;;;;4972471;28;20175;-84
2021/06/10 06:49:40;;;;;;;8.17;3.80;;;20.70;1.00;;;;;;4973208;28;20173;-84
2021/06/10 06:52:06;;;;;;;5.47;3.80;;;20.80;99.90;;;;;;4975426;28;20178;-84
2021/06/10 06:54:32;;;;;;;6.03;3.63;;;20.80;1.00;;;;;;4974205;28;20202;-84
2021/06/10 06:56:58;;;;;;;7.83;3.70;;;20.90;99.90;;;;;;4976632;28;20200;-85
2021/06/10 06:59:23;;;;;;;7.53;3.83;;;21.20;1.00;;;;;;4993627;28;20173;-83
2021/06/10 07:01:49;;;;;;;11.07;3.77;;;21.30;99.90;;;;;;4996740;28;20173;-83
2021/06/10 07:04:15;;;;;;;6.17;3.30;;;21.40;99.90;;;;;;4994929;28;20173;-85
2021/06/10 07:06:41;;;;;;;8.87;2.70;;;21.50;99.90;;;;;;4995351;28;20213;-85
2021/06/10 07:09:06;;;;;;;4.73;2.23;;;21.60;1.00;;;;;;4995393;28;20169;-85
2021/06/10 07:11:33;;;;;;;5.97;2.40;;;21.50;99.90;;;;;;4996385;28;20176;-84
2021/06/10 07:13:59;;;;;;;5.10;1.80;;;21.60;99.90;;;;;;4994996;28;20257;-84
2021/06/10 07:16:24;;;;;;;2.53;2.00;;;21.60;1.00;;;;;;5001347;28;20228;-84
2021/06/10 07:18:50;;;;;;;6.30;2.10;;;21.70;1.00;;;;;;5002428;28;20204;-83
2021/06/10 07:21:16;;;;;;;8.23;2.43;;;21.80;1.00;;;;;;5009195;28;20224;-84
2021/06/10 07:23:41;;;;;;;5.97;2.37;;;21.80;1.00;;;;;;5003816;28;20180;-84
2021/06/10 07:26:07;;;;;;;5.63;2.00;;;21.80;1.00;;;;;;4999248;28;20209;-85
2021/06/10 07:28:33;;;;;;;5.63;2.20;;;21.90;15.40;;;;;;4999298;28;20653;-83
2021/06/10 07:30:58;;;;;;;3.67;2.33;;;21.90;99.90;;;;;;5018943;28;20618;-85
2021/06/10 07:33:25;;;;;;;3.10;1.90;;;21.80;1.00;;;;;;5020996;28;20271;-84
2021/06/10 07:35:51;;;;;;;5.47;2.37;;;21.90;1.00;;;;;;5002528;28;20220;-84
2021/06/10 07:38:18;;;;;;;4.10;2.20;;;21.70;99.90;;;;;;5020446;28;20186;-84
2021/06/10 07:40:44;;;;;;;4.70;2.33;;;21.50;99.90;;;;;;5008769;28;20185;-83
2021/06/10 07:43:10;;;;;;;4.90;2.63;;;21.60;99.90;;;;;;5008029;28;20180;-82
2021/06/10 07:45:36;;;;;;;4.70;2.53;;;21.90;99.90;;;;;;5001525;28;20187;-84
2021/06/10 07:48:03;;;;;;;8.73;2.70;;;22.00;7.00;;;;;;5005622;28;20237;-82
2021/06/10 07:50:31;;;;;;;7.17;2.00;;;22.20;1.00;;;;;;5010661;28;20181;-83
2021/06/10 07:52:56;;;;;;;3.53;2.10;;;22.30;99.90;;;;;;5011244;28;20220;-88
2021/06/10 07:55:23;;;;;;;6.37;2.30;;;22.30;99.90;;;;;;5000735;28;20214;-83
2021/06/10 07:58:00;;;;;;;7.37;2.40;;;21.90;1.00;;;;;;5002560;28;20184;-88
2021/06/10 08:00:27;;;;;;;5.53;2.60;;;21.90;96.60;;;;;;5003913;28;20231;-83
2021/06/10 08:02:57;;;;;;;5.03;2.47;;;21.80;99.90;;;;;;5016488;28;20528;-81
2021/06/10 08:05:23;;;;;;;8.00;2.80;;;22.00;99.90;;;;;;5003578;28;20173;-85
2021/06/10 08:07:49;;;;;;;4.83;2.17;;;22.20;93.00;;;;;;5004967;28;20189;-83
2021/06/10 08:10:17;;;;;;;4.70;2.80;;;22.40;1.00;;;;;;5005569;28;20243;-84
2021/06/10 08:12:42;;;;;;;6.50;2.77;;;22.40;1.00;;;;;;5009396;28;20194;-83
2021/06/10 08:15:08;;;;;;;5.30;2.87;;;22.50;99.90;;;;;;5012179;28;20213;-84
2021/06/10 08:17:37;;;;;;;4.37;2.33;;;22.60;1.00;;;;;;5006958;28;20186;-83
2021/06/10 08:20:05;;;;;;;5.90;2.33;;;22.80;1.00;;;;;;5000368;28;20214;-83
2021/06/10 08:22:32;;;;;;;4.23;2.40;;;23.10;1.00;;;;;;5011049;28;20178;-83
2021/06/10 08:24:58;;;;;;;4.33;2.90;;;23.10;99.90;;;;;;5018705;28;20179;-82
2021/06/10 08:27:24;;;;;;;4.03;2.57;;;22.80;1.00;;;;;;5004142;28;20685;-81
2021/06/10 08:29:49;;;;;;;5.70;2.83;;;22.70;99.90;;;;;;5001705;28;20180;-81
2021/06/10 08:32:15;;;;;;;3.77;2.27;;;22.20;99.90;;;;;;5000621;28;20182;-82
2021/06/10 08:34:41;;;;;;;3.67;2.57;;;22.00;99.90;;;;;;5002017;28;20673;-80
2021/06/10 08:37:06;;;;;;;4.03;2.70;;;22.20;99.90;;;;;;5002155;28;20545;-83
2021/06/10 08:39:32;;;;;;;6.30;2.73;;;22.30;99.90;;;;;;5000077;28;20170;-83
2021/06/10 08:41:59;;;;;;;5.20;2.60;;;22.20;99.90;;;;;;5003562;28;20207;-80
2021/06/10 08:44:24;;;;;;;4.43;2.50;;;22.10;99.90;;;;;;5006777;28;20204;-80
2021/06/10 08:46:54;;;;;;;5.53;2.57;;;22.20;99.90;;;;;;5008567;28;20202;-84
2021/06/10 08:49:20;;;;;;;4.87;2.70;;;22.40;99.90;;;;;;5007888;28;20228;-80
2021/06/10 08:51:48;;;;;;;4.33;2.20;;;22.60;99.90;;;;;;5004180;28;20262;-81
2021/06/10 08:54:14;;;;;;;5.27;2.43;;;22.60;3.40;;;;;;5006272;28;20193;-80
2021/06/10 08:56:41;;;;;;;4.60;2.73;;;22.60;99.90;;;;;;5003686;28;20204;-80
2021/06/10 08:59:09;;;;;;;3.20;2.10;;;22.80;99.90;;;;;;5002097;28;20191;-81
2021/06/10 09:01:36;;;;;;;5.40;2.03;;;22.90;99.90;;;;;;5003480;28;20256;-84
2021/06/10 09:04:03;;;;;;;3.73;2.17;;;22.90;99.90;;;;;;5001847;28;20185;-82
2021/06/10 09:06:45;;;;;;;3.87;2.10;;;22.70;99.90;;;;;;5005309;28;20177;-81
2021/06/10 09:09:11;;;;;;;3.47;2.27;;;22.60;1.00;;;;;;5004900;28;20177;-80
2021/06/10 09:11:38;;;;;;;2.87;1.83;;;22.70;1.00;;;;;;5002573;28;20233;-80
2021/06/10 09:14:08;;;;;;;3.57;1.70;;;22.60;1.00;;;;;;5001967;28;20200;-78
2021/06/10 09:16:38;;;;;;;3.57;2.10;;;22.60;8.70;;;;;;5000258;28;20172;-83
2021/06/10 09:19:20;;;;;;;3.37;2.10;;;22.70;99.90;;;;;;5002622;28;20215;-80
2021/06/10 09:21:56;;;;;;;3.03;2.20;;;22.80;99.90;;;;;;5000018;28;20183;-80
2021/06/10 09:24:32;;;;;;;5.57;2.70;;;23.00;1.00;;;;;;5002993;28;20205;-81
2021/06/10 09:27:14;;;;;;;4.50;2.33;;;23.30;1.00;;;;;;5002851;28;20611;-81
2021/06/10 09:29:46;;;;;;;4.27;2.53;;;23.70;99.90;;;;;;5002853;28;20201;-83
2021/06/10 09:32:30;;;;;;;3.77;2.63;;;23.90;99.90;;;;;;5003068;28;20699;-81
2021/06/10 09:34:59;;;;;;;4.77;2.40;;;24.00;1.00;;;;;;5002796;28;20254;-81
2021/06/10 09:37:34;;;;;;;3.43;2.00;;;24.00;26.30;;;;;;5003189;28;20641;-88
2021/06/10 09:40:06;;;;;;;6.17;3.97;;;24.00;1.00;;;;;;5002068;28;20203;-83
2021/06/10 09:42:37;;;;;;;3.70;1.90;;;23.90;99.90;;;;;;5003910;28;20166;-82
2021/06/10 09:45:05;;;;;;;2.27;1.70;;;23.60;1.00;;;;;;5001908;28;20181;-86
2021/06/10 09:47:39;;;;;;;3.17;1.83;;;23.50;1.00;;;;;;4998959;28;20189;-80
2021/06/10 09:50:19;;;;;;;3.47;2.00;;;23.70;1.00;;;;;;4995382;28;20175;-81
2021/06/10 09:52:50;;;;;;;4.80;1.80;;;23.70;99.90;;;;;;4995156;28;20669;-82
2021/06/10 09:55:42;;;;;;;4.23;2.23;;;23.40;13.80;;;;;;4994931;28;20215;-83
2021/06/10 09:58:14;;;;;;;4.47;2.00;;;23.40;1.00;;;;;;4994293;28;20222;-79
2021/06/10 10:00:50;;;;;;;4.30;2.40;;;23.50;1.00;;;;;;4997199;28;20246;-79
2021/06/10 10:03:44;;;;;;;3.43;2.20;;;23.60;1.00;;;;;;4997017;28;20177;-82
2021/06/10 10:06:37;;;;;;;4.47;2.87;;;23.70;99.90;;;;;;4999091;28;20260;-79
2021/06/10 10:09:05;;;;;;;5.47;2.23;;;23.90;99.90;;;;;;5001523;28;20255;-79
2021/06/10 10:11:35;;;;;;;3.63;2.50;;;24.00;99.90;;;;;;5001329;28;20190;-80
2021/06/10 10:14:03;;;;;;;3.47;2.33;;;24.10;1.00;;;;;;4998441;28;20541;-80
2021/06/10 10:16:34;;;;;;;4.23;2.40;;;24.10;1.00;;;;;;5001197;28;20187;-80
2021/06/10 10:19:03;;;;;;;5.17;2.50;;;24.20;1.00;;;;;;5009731;28;20275;-81
2021/06/10 10:21:38;;;;;;;4.23;2.20;;;24.50;99.90;;;;;;4998143;28;20206;-80
2021/06/10 10:24:09;;;;;;;5.07;2.30;;;24.70;27.50;;;;;;4997111;28;20208;-81
2021/06/10 10:26:40;;;;;;;5.37;2.60;;;24.90;99.90;;;;;;4994962;28;20189;-80
2021/06/10 10:29:13;;;;;;;4.70;2.00;;;25.00;99.90;;;;;;4997567;28;20194;-80
2021/06/10 10:31:42;;;;;;;3.60;2.50;;;25.10;99.90;;;;;;4997829;28;20178;-83
2021/06/10 10:34:27;;;;;;;4.63;2.63;;;25.00;99.90;;;;;;4996709;28;20190;-81
2021/06/10 10:36:53;;;;;;;3.43;2.30;;;24.80;99.90;;;;;;5001829;28;20172;-80
2021/06/10 10:39:33;;;;;;;5.53;3.03;;;24.70;99.90;;;;;;5014063;28;20184;-83
2021/06/10 10:42:00;;;;;;;7.63;2.97;;;24.50;1.00;;;;;;5015451;28;20225;-81
2021/06/10 10:44:29;;;;;;;6.17;2.50;;;24.50;1.00;;;;;;5013341;28;20188;-84
2021/06/10 10:47:08;;;;;;;5.67;2.57;;;24.50;1.00;;;;;;5017495;28;20146;-81
2021/06/10 10:49:46;;;;;;;3.83;2.70;;;24.60;1.00;;;;;;5017735;28;20218;-80
2021/06/10 10:52:15;;;;;;;5.50;2.50;;;24.80;99.90;;;;;;5016938;28;20193;-80
2021/06/10 10:54:49;;;;;;;4.40;2.63;;;24.80;99.90;;;;;;5006982;28;20210;-81
2021/06/10 10:57:30;;;;;;;4.90;2.10;;;24.40;99.90;;;;;;4998822;28;20677;-80
2021/06/10 10:59:59;;;;;;;3.67;2.27;;;24.30;99.90;;;;;;4986052;28;20186;-80
2021/06/10 11:02:39;;;;;;;5.33;2.40;;;24.50;99.90;;;;;;4981144;28;20194;-81
2021/06/10 11:05:09;;;;;;;6.07;2.40;;;24.80;1.00;;;;;;4982151;28;20158;-83
2021/06/10 11:07:45;;;;;;;5.17;2.40;;;25.10;99.90;;;;;;4979224;28;20210;-82
2021/06/10 11:10:40;;;;;;;5.70;2.20;;;25.50;99.90;;;;;;4979998;28;20178;-81
2021/06/10 11:13:27;;;;;;;4.73;2.63;;;25.60;1.00;;;;;;4963046;28;20195;-80
2021/06/10 11:16:01;;;;;;;8.37;2.53;;;25.50;1.00;;;;;;4978582;28;20214;-83
2021/06/10 11:18:44;;;;;;;6.47;3.00;;;25.40;99.90;;;;;;4982857;28;20198;-84
2021/06/10 11:21:31;;;;;;;5.70;3.00;;;25.20;99.90;;;;;;4980437;28;20237;-88
2021/06/10 11:24:21;;;;;;;3.73;2.57;;;25.40;99.90;;;;;;4979634;28;20182;-84
2021/06/10 11:27:02;;;;;;;3.70;2.33;;;25.50;1.00;;;;;;4981289;28;20709;-84
2021/06/10 11:29:29;;;;;;;9.83;2.97;;;25.70;1.00;;;;;;4998945;28;20216;-81
2021/06/10 11:32:29;;;;;;;3.87;2.03;;;26.00;1.00;;;;;;5004015;28;20213;-79
2021/06/10 11:34:56;;;;;;;5.03;2.43;;;25.70;59.00;;;;;;5002796;28;20206;-85
2021/06/10 11:37:25;;;;;;;5.13;2.40;;;25.80;99.90;;;;;;4999913;28;20258;-79
2021/06/10 11:39:52;;;;;;;2.90;1.80;;;26.00;99.90;;;;;;4999347;28;20179;-82
2021/06/10 11:42:22;;;;;;;4.87;2.00;;;26.20;69.00;;;;;;4999526;28;20178;-81
2021/06/10 11:44:48;;;;;;;8.13;2.50;;;25.80;1.00;;;;;;4998641;28;20185;-83
2021/06/10 11:47:32;;;;;;;7.50;2.13;;;25.80;1.00;;;;;;5000084;28;20183;-82
2021/06/10 11:49:57;;;;;;;3.83;1.70;;;25.80;1.00;;;;;;4999930;28;20197;-81
2021/06/10 11:52:24;;;;;;;4.20;1.63;;;25.90;99.90;;;;;;4999073;28;20230;-80
2021/06/10 11:55:10;;;;;;;4.33;2.30;;;25.90;1.00;;;;;;5000184;28;20293;-78
2021/06/10 11:57:36;;;;;;;3.93;2.37;;;25.40;1.00;;;;;;5000879;28;20194;-83
2021/06/10 12:00:05;;;;;;;3.20;2.10;;;25.40;51.40;;;;;;4998137;28;20545;-78
2021/06/10 12:02:31;;;;;;;4.07;2.00;;;25.60;1.00;;;;;;4997151;28;20253;-81
2021/06/10 12:05:06;;;;;;;4.60;2.00;;;25.80;1.00;;;;;;4997905;28;20204;-83
2021/06/10 12:07:33;;;;;;;4.63;1.90;;;26.10;1.00;;;;;;5001566;28;20150;-86
2021/06/10 12:10:01;;;;;;;7.13;2.30;;;26.20;1.00;;;;;;5001644;28;20245;-80
2021/06/10 12:12:35;;;;;;;2.73;1.70;;;26.40;1.00;;;;;;5000202;28;20249;-78
2021/06/10 12:15:03;;;;;;;6.00;3.00;;;26.50;99.90;;;;;;5003918;28;20206;-82
2021/06/10 12:17:47;;;;;;;3.27;2.43;;;26.50;1.00;;;;;;5002835;28;20171;-84
2021/06/10 12:20:21;;;;;;;3.70;2.30;;;26.50;1.00;;;;;;4999688;28;20171;-81
2021/06/10 12:22:48;;;;;;;3.73;2.70;;;26.60;1.00;;;;;;4997165;28;20802;-80
2021/06/10 12:25:16;;;;;;;3.27;2.00;;;26.70;99.90;;;;;;4999478;28;20178;-80
2021/06/10 12:27:42;;;;;;;2.90;2.10;;;26.70;99.90;;;;;;4999235;28;20243;-78
2021/06/10 12:30:26;;;;;;;4.23;2.60;;;26.70;99.90;;;;;;5001668;28;20173;-79
2021/06/10 12:32:52;;;;;;;3.30;2.30;;;26.50;99.90;;;;;;4999808;28;20619;-78
2021/06/10 12:35:20;;;;;;;5.27;2.47;;;26.20;1.00;;;;;;4997531;28;20193;-80
2021/06/10 12:37:53;;;;;;;3.70;3.10;;;26.50;1.00;;;;;;4997563;28;20195;-82
2021/06/10 12:40:19;;;;;;;5.57;2.97;;;26.50;1.00;;;;;;4996193;28;20179;-79
2021/06/10 12:43:05;;;;;;;5.93;2.63;;;26.10;1.00;;;;;;4994898;28;20180;-82
2021/06/10 12:45:30;;;;;;;4.50;3.13;;;26.00;1.00;;;;;;5011567;28;20179;-79
2021/06/10 12:47:56;;;;;;;5.77;3.90;;;26.10;1.00;;;;;;4997146;28;20189;-80
2021/06/10 12:50:22;;;;;;;5.63;3.23;;;26.10;44.20;;;;;;4997326;28;20169;-81
2021/06/10 12:52:47;;;;;;;4.30;3.00;;;26.20;99.90;;;;;;4996964;28;20178;-79
2021/06/10 12:55:16;;;;;;;3.83;3.10;;;26.20;1.00;;;;;;4997030;28;20204;-80
2021/06/10 12:57:41;;;;;;;3.60;2.60;;;26.20;1.00;;;;;;4995303;28;20631;-80
2021/06/10 13:00:13;;;;;;;6.57;3.40;;;26.40;1.00;;;;;;4997497;28;20215;-79
2021/06/10 13:02:40;;;;;;;6.40;3.63;;;26.50;1.00;;;;;;4996014;28;20229;-79